ENBL/FDE METAR and TAF weather

Enter ICAO airport designator
Station Type Date Time Source
ENBL METAR 2018/10/22 15:50 UTC NOAA

ENBL 221550Z 19008KT 7000 -RA SCT006 BKN012 02/02 Q1008


Station Type Date Time Source
ENBL Decoded METAR 2018/10/22 15:50 UTC NOAA

Forde / Bringeland, Norway (ENBL) 61-27N 005-52E
Oct 22, 2018 - 11:50 AM EDT / 2018.10.22 1550 UTC
Wind: from the S (190 degrees) at 9 MPH (8 KT):0
Visibility: 4 mile(s):0
Sky conditions: mostly cloudy
Weather: light rain
Temperature: 35 F (2 C)
Windchill: 28 F (-2 C):1
Dew Point: 35 F (2 C)
Relative Humidity: 100%
Pressure (altimeter): 29.77 in. Hg (1008 hPa)
ob: ENBL 221550Z 19008KT 7000 -RA SCT006 BKN012 02/02 Q1008
cycle: 16

Station Type Date Time Source
ENBL TAF UTC NOAA

Error!


Example: see airport list